BUCHANAN DAM (BUC)

Elevation: 450' · CHOWCHILLA R basin · Operator: US Army Corps of Engineers

Provisional data, subject to change.
Query executed Tuesday at 2:16:29   clock

Select a sensor type for a plot of data.
Note: Reservoir Flows are daily averages.

Earlier

Date RES ELE    STORAGE    RES CHG    TOC STO    ABV TOC    OUTFLOW    INFLOW    PPT INC    TEMP MN    TEMP MX   
 FEET   AF   AF   AF   AF   CFS   CFS   INCHES   DEG F   DEG F  
03/01/2015 469.99 12185 0 117679 -105494 0 1 -- -18 16
03/02/2015 470.00 12190 5 117857 -105667 0 4 -- 6 16
03/03/2015 470.00 12190 0 118036 -105846 0 2 -- 3 17
03/04/2015 470.00 12190 0 118214 -106024 0 2 -- 4 20
03/05/2015 470.01 12196 6 118393 -106197 0 5 -- 4 22
03/06/2015 470.02 12201 5 118571 -106370 0 5 -- 4 22
03/07/2015 470.02 12201 0 118750 -106549 0 2 -- 6 25
03/08/2015 470.03 12206 5 118929 -106723 0 5 -- 6 24
03/09/2015 470.03 12206 0 119107 -106901 0 2 -- 8 26
03/10/2015 470.03 12206 0 119286 -107080 0 2 -- 8 29
03/11/2015 470.04 12212 6 119464 -107252 0 4 -- 13 23
03/12/2015 470.04 12212 0 119643 -107431 0 2 -- 6 23
03/13/2015 470.04 12212 0 119821 -107609 135 138 -- 8 28
03/14/2015 470.04 12212 0 120000 -107788 186 189 -- 12 32
03/15/2015 470.04 12212 0 120462 -108250 161 164 -- 15 34
03/16/2015 470.05 12217 5 120923 -108706 2 6 -- 9 25
03/17/2015 470.04 12212 -5 121385 -109173 14 13 -- 11 23
03/18/2015 470.04 12212 -- 121846 -109634 131 133 -- 8 25
03/19/2015 470.05 12217 5 122308 -110091 0 5 -- 9 27
03/20/2015 470.05 12217 0 122769 -110552 0 2 -- 10 27
03/21/2015 470.05 12217 0 123231 -111014 0 2 -- 7 26
03/22/2015 470.04 12212 -5 123692 -111480 0 -0 -- 10 25
03/23/2015 470.03 12206 -6 124154 -111948 0 -0 -- 9 21
03/24/2015 470.02 12201 -5 124615 -112414 0 -0 -- 7 21
03/25/2015 470.02 12201 0 125077 -112876 0 3 -- 7 26
03/26/2015 470.01 12196 -5 125538 -113342 0 1 -- 10 32
03/27/2015 470.01 12196 0 126000 -113804 0 3 -- 11 32
03/28/2015 -- -- -- -- -- -- -- -- -- --
03/29/2015 -- -- -- -- -- -- -- -- -- --
03/30/2015 -- -- -- -- -- -- -- -- -- --
03/31/2015 -- -- -- -- -- -- -- -- -- --

Later | Latest

Warning! This data is preliminary and subject to revision.

Show BUC Map | Plot BUC Data | 1 Month BUC Data | Real-Time BUC Data | BUC Info